createdAt,value
2017-05-27T00:00:16.739Z,22.18
2017-05-27T00:02:44.312Z,22.30
2017-05-27T00:05:11.853Z,22.44
2017-05-27T00:07:39.429Z,22.54
2017-05-27T00:10:06.999Z,22.57
2017-05-27T00:12:34.588Z,22.58
2017-05-27T00:15:02.125Z,22.60
2017-05-27T00:17:29.705Z,22.60
2017-05-27T00:19:57.261Z,22.42
2017-05-27T00:22:24.893Z,22.40
2017-05-27T00:24:52.532Z,22.32
2017-05-27T00:27:20.069Z,22.29
2017-05-27T00:29:47.665Z,22.15
2017-05-27T00:32:15.219Z,22.00
2017-05-27T00:34:42.906Z,21.98
2017-05-27T00:37:10.483Z,21.77
2017-05-27T00:39:38.079Z,21.72
2017-05-27T00:42:05.639Z,21.68
2017-05-27T00:44:33.207Z,21.71
2017-05-27T00:47:00.813Z,21.67
2017-05-27T00:49:28.389Z,21.57
2017-05-27T00:51:56.032Z,21.83
2017-05-27T00:54:23.599Z,22.00
2017-05-27T00:56:51.215Z,21.90
2017-05-27T00:59:18.833Z,22.01
2017-05-27T01:01:46.461Z,22.03
2017-05-27T01:04:14.012Z,22.08
2017-05-27T01:06:41.564Z,21.93
2017-05-27T01:09:09.137Z,21.78
2017-05-27T01:11:36.678Z,21.71
2017-05-27T01:14:04.240Z,21.92
2017-05-27T01:16:31.825Z,21.98
2017-05-27T01:18:59.448Z,21.99
2017-05-27T01:21:26.991Z,22.06
2017-05-27T01:23:54.670Z,22.05
2017-05-27T01:26:22.191Z,22.06
2017-05-27T01:28:49.830Z,22.11
2017-05-27T01:31:17.368Z,22.06
2017-05-27T01:33:44.880Z,22.01
2017-05-27T01:36:12.508Z,22.05
2017-05-27T01:38:40.084Z,21.96
2017-05-27T01:41:07.691Z,22.02
2017-05-27T01:43:35.251Z,22.00
2017-05-27T01:46:02.789Z,21.96
2017-05-27T01:48:30.323Z,21.97
2017-05-27T01:50:57.921Z,22.00
2017-05-27T01:53:25.452Z,22.00
2017-05-27T01:55:53.005Z,21.95
2017-05-27T01:58:20.582Z,21.94
2017-05-27T02:00:48.108Z,21.93
2017-05-27T02:03:15.765Z,21.88
2017-05-27T02:05:43.459Z,21.88
2017-05-27T02:08:11.052Z,21.87
2017-05-27T02:10:38.637Z,21.92
2017-05-27T02:13:06.171Z,21.82
2017-05-27T02:15:33.841Z,21.86
2017-05-27T02:18:01.439Z,21.82
2017-05-27T02:20:28.980Z,21.76
2017-05-27T02:22:56.651Z,21.75
2017-05-27T02:25:24.196Z,21.72
2017-05-27T02:27:51.980Z,21.74
2017-05-27T02:30:19.644Z,21.69
2017-05-27T02:32:47.279Z,21.74
2017-05-27T02:35:14.802Z,21.73
2017-05-27T02:37:42.327Z,21.66
2017-05-27T02:40:09.925Z,21.62
2017-05-27T02:42:37.471Z,21.61
2017-05-27T02:45:05.075Z,21.50
2017-05-27T02:47:32.633Z,21.45
2017-05-27T02:50:00.172Z,21.45
2017-05-27T02:52:27.793Z,21.40
2017-05-27T02:54:55.346Z,21.42
2017-05-27T02:57:22.919Z,21.22
2017-05-27T02:59:50.487Z,21.21
2017-05-27T03:02:18.204Z,21.21
2017-05-27T03:04:45.735Z,21.09
2017-05-27T03:07:13.285Z,21.13
2017-05-27T03:09:40.916Z,21.16
2017-05-27T03:12:08.491Z,21.16
2017-05-27T03:14:36.056Z,20.97
2017-05-27T03:17:03.598Z,21.08
2017-05-27T03:19:31.434Z,21.05
2017-05-27T03:21:58.980Z,21.13
2017-05-27T03:24:26.511Z,21.11
2017-05-27T03:26:54.071Z,21.01
2017-05-27T03:29:21.613Z,21.00
2017-05-27T03:31:49.235Z,21.01
2017-05-27T03:34:16.779Z,20.91
2017-05-27T03:36:44.430Z,20.87
2017-05-27T03:39:11.981Z,20.88
2017-05-27T03:41:39.511Z,20.82
2017-05-27T03:44:07.079Z,20.71
2017-05-27T03:46:34.610Z,20.75
2017-05-27T03:49:02.174Z,20.73
2017-05-27T03:51:29.799Z,20.69
2017-05-27T03:53:57.374Z,20.63
2017-05-27T03:56:25.024Z,20.58
2017-05-27T03:58:52.596Z,20.54
2017-05-27T04:01:20.208Z,20.51
2017-05-27T04:03:47.747Z,20.54
2017-05-27T04:06:15.352Z,20.61
2017-05-27T04:08:42.888Z,20.60
2017-05-27T04:11:10.524Z,20.56
2017-05-27T04:13:38.052Z,20.53
2017-05-27T04:16:05.666Z,20.55
2017-05-27T04:18:33.212Z,20.60
2017-05-27T04:21:00.819Z,20.55
2017-05-27T04:23:28.367Z,20.54
2017-05-27T04:25:55.913Z,20.53
2017-05-27T04:28:23.476Z,20.52
2017-05-27T04:30:51.017Z,20.58
2017-05-27T04:33:18.931Z,20.57
2017-05-27T04:35:46.512Z,20.62
2017-05-27T04:38:14.061Z,20.59
2017-05-27T04:40:41.621Z,20.61
2017-05-27T04:43:09.152Z,20.62
2017-05-27T04:45:36.725Z,20.64
2017-05-27T04:48:04.322Z,20.69
2017-05-27T04:50:31.888Z,20.77
2017-05-27T04:52:59.425Z,20.73
2017-05-27T04:55:27.077Z,20.79
2017-05-27T04:57:54.747Z,20.77
2017-05-27T05:00:22.292Z,20.74
2017-05-27T05:02:49.821Z,20.74
2017-05-27T05:05:17.414Z,20.75
2017-05-27T05:07:44.965Z,20.74
2017-05-27T05:10:12.492Z,20.81
2017-05-27T05:12:40.084Z,20.81
2017-05-27T05:15:07.640Z,20.84
2017-05-27T05:17:35.209Z,20.86
2017-05-27T05:20:02.848Z,20.91
2017-05-27T05:22:30.497Z,20.95
2017-05-27T05:24:58.085Z,20.99
2017-05-27T05:27:25.684Z,21.01
2017-05-27T05:29:53.274Z,21.03
2017-05-27T05:32:20.844Z,21.07
2017-05-27T05:34:48.443Z,21.07
2017-05-27T05:37:16.005Z,21.10
2017-05-27T05:39:43.609Z,21.12
2017-05-27T05:42:11.236Z,21.15
2017-05-27T05:44:38.772Z,21.22
2017-05-27T05:47:06.438Z,21.28
2017-05-27T05:49:34.020Z,21.29
2017-05-27T05:52:01.603Z,21.34
2017-05-27T05:54:29.147Z,21.39
2017-05-27T05:56:56.681Z,21.43
2017-05-27T05:59:24.307Z,21.48
2017-05-27T06:01:51.869Z,21.51
2017-05-27T06:04:19.517Z,21.60
2017-05-27T06:06:47.131Z,21.66
2017-05-27T06:09:14.753Z,21.68
2017-05-27T06:11:42.292Z,21.72
2017-05-27T06:14:09.875Z,21.80
2017-05-27T06:16:37.427Z,21.85
2017-05-27T06:19:04.976Z,21.83
2017-05-27T06:21:32.531Z,21.90
2017-05-27T06:24:00.093Z,21.96
2017-05-27T06:26:27.727Z,22.06
2017-05-27T06:28:55.263Z,22.07
2017-05-27T06:31:22.809Z,22.13
2017-05-27T06:33:50.372Z,22.20
2017-05-27T06:36:17.907Z,22.25
2017-05-27T06:38:45.475Z,22.27
2017-05-27T06:41:13.003Z,22.33
2017-05-27T06:43:40.983Z,22.43
2017-05-27T06:46:08.616Z,22.49
2017-05-27T06:48:36.170Z,22.57
2017-05-27T06:51:03.812Z,22.58
2017-05-27T06:53:31.348Z,22.61
2017-05-27T06:58:25.709Z,22.69
2017-05-27T07:00:53.317Z,22.67
2017-05-27T07:03:20.852Z,22.73
2017-05-27T07:05:48.447Z,22.84
2017-05-27T07:08:15.982Z,22.91
2017-05-27T07:10:43.521Z,22.89
2017-05-27T07:13:11.124Z,22.90
2017-05-27T07:15:38.673Z,23.04
2017-05-27T07:18:06.243Z,23.03
2017-05-27T07:20:33.834Z,23.02
2017-05-27T07:23:01.413Z,23.04
2017-05-27T07:25:28.946Z,23.15
2017-05-27T07:27:56.475Z,23.24
2017-05-27T07:30:24.036Z,23.31
2017-05-27T07:32:51.585Z,23.32
2017-05-27T07:35:19.255Z,23.41
2017-05-27T07:37:46.850Z,23.42
2017-05-27T07:40:14.519Z,23.49
2017-05-27T07:42:42.111Z,23.45
2017-05-27T07:45:09.654Z,23.54
2017-05-27T07:47:37.272Z,23.60
2017-05-27T07:50:04.851Z,23.68
2017-05-27T07:52:32.488Z,23.74
2017-05-27T07:55:00.014Z,23.73
2017-05-27T07:57:27.599Z,23.75
2017-05-27T07:59:55.160Z,23.78
2017-05-27T08:02:22.713Z,23.83
2017-05-27T08:04:51.960Z,23.91
2017-05-27T08:07:19.551Z,23.93
2017-05-27T08:09:47.125Z,23.97
2017-05-27T08:12:14.804Z,24.03
2017-05-27T08:14:42.353Z,24.10
2017-05-27T08:17:09.954Z,24.25
2017-05-27T08:19:37.716Z,24.35
2017-05-27T08:22:05.330Z,24.42
2017-05-27T08:24:32.964Z,24.41
2017-05-27T08:27:00.500Z,24.49
2017-05-27T08:29:28.125Z,24.61
2017-05-27T08:31:55.693Z,24.70
2017-05-27T08:34:28.927Z,24.72
2017-05-27T08:36:56.488Z,24.84
2017-05-27T08:39:24.108Z,24.97
2017-05-27T08:41:51.663Z,24.98
2017-05-27T08:44:19.197Z,25.02
2017-05-27T08:46:46.744Z,25.00
2017-05-27T08:49:14.288Z,25.11
2017-05-27T08:51:41.864Z,25.10
2017-05-27T08:54:09.395Z,25.19
2017-05-27T08:56:37.202Z,25.22
2017-05-27T08:59:04.822Z,25.26
2017-05-27T09:01:32.357Z,25.26
2017-05-27T09:04:00.366Z,25.29
2017-05-27T09:06:27.904Z,25.38
2017-05-27T09:08:55.499Z,25.41
2017-05-27T09:11:23.033Z,25.54
2017-05-27T09:13:50.583Z,25.59
2017-05-27T09:16:18.143Z,25.75
2017-05-27T09:18:45.716Z,25.76
2017-05-27T09:21:13.299Z,25.87
2017-05-27T09:23:40.840Z,25.88
2017-05-27T09:26:08.467Z,25.98
2017-05-27T09:28:36.050Z,26.04
2017-05-27T09:31:03.616Z,26.05
2017-05-27T09:33:31.218Z,26.08
2017-05-27T09:35:58.740Z,26.20
2017-05-27T09:38:26.359Z,26.27
2017-05-27T09:40:53.913Z,26.38
2017-05-27T09:43:21.449Z,26.46
2017-05-27T09:45:49.112Z,26.55
2017-05-27T09:48:16.688Z,26.68
2017-05-27T09:50:44.341Z,26.77
2017-05-27T09:53:11.867Z,26.86
2017-05-27T09:55:39.417Z,26.98
2017-05-27T09:58:07.024Z,27.10
2017-05-27T10:00:34.557Z,27.15
2017-05-27T10:03:02.196Z,27.28
2017-05-27T10:05:29.735Z,27.38
2017-05-27T10:07:57.332Z,27.56
2017-05-27T10:10:24.886Z,27.67
2017-05-27T10:12:52.465Z,27.68
2017-05-27T10:15:20.009Z,27.79
2017-05-27T10:17:47.535Z,27.88
2017-05-27T10:20:15.104Z,27.94
2017-05-27T10:22:42.744Z,27.99
2017-05-27T10:25:18.216Z,28.02
2017-05-27T10:27:45.877Z,28.14
2017-05-27T10:30:13.462Z,28.23
2017-05-27T10:32:41.069Z,28.37
2017-05-27T10:35:08.668Z,28.53
2017-05-27T10:37:36.242Z,28.50
2017-05-27T10:40:03.867Z,28.54
2017-05-27T10:42:31.419Z,28.66
2017-05-27T10:44:58.952Z,28.75
2017-05-27T10:47:26.545Z,28.82
2017-05-27T10:49:54.100Z,28.92
2017-05-27T10:52:21.638Z,29.12
2017-05-27T10:54:49.228Z,29.29
2017-05-27T10:57:16.777Z,29.44
2017-05-27T10:59:44.368Z,29.43
2017-05-27T11:02:11.895Z,29.56
2017-05-27T11:04:39.539Z,29.71
2017-05-27T11:07:07.095Z,29.73
2017-05-27T11:09:34.724Z,29.87
2017-05-27T11:12:03.565Z,29.97
2017-05-27T11:14:31.104Z,30.07
2017-05-27T11:16:58.791Z,30.05
2017-05-27T11:19:27.632Z,30.06
2017-05-27T11:21:55.257Z,30.00
2017-05-27T11:24:22.780Z,30.13
2017-05-27T11:26:50.633Z,30.10
2017-05-27T11:29:18.171Z,30.12
2017-05-27T11:31:46.074Z,30.13
2017-05-27T11:34:13.635Z,30.24
2017-05-27T11:36:41.170Z,30.24
2017-05-27T11:39:08.816Z,30.27
2017-05-27T11:41:36.439Z,30.33
2017-05-27T11:44:04.681Z,30.28
2017-05-27T11:46:32.628Z,30.34
2017-05-27T11:49:00.501Z,30.57
2017-05-27T12:54:51.856Z,32.73
2017-05-27T12:57:19.364Z,32.77
2017-05-27T12:59:46.977Z,32.58
2017-05-27T13:02:14.540Z,32.48
2017-05-27T13:04:42.060Z,32.51
2017-05-27T13:07:09.650Z,32.49
2017-05-27T13:09:37.179Z,32.47
2017-05-27T13:12:04.703Z,32.46
2017-05-27T13:14:32.307Z,32.47
2017-05-27T13:16:59.859Z,32.54
2017-05-27T13:19:27.445Z,32.73
2017-05-27T13:21:54.980Z,32.82
2017-05-27T13:24:22.552Z,32.94
2017-05-27T13:26:50.129Z,33.00
2017-05-27T13:29:17.724Z,32.93
2017-05-27T13:31:45.327Z,32.87
2017-05-27T13:34:12.916Z,32.91
2017-05-27T13:36:40.528Z,33.08
2017-05-27T13:39:08.216Z,33.21
2017-05-27T13:41:35.883Z,33.19
2017-05-27T13:44:03.466Z,33.23
2017-05-27T13:46:31.087Z,33.17
2017-05-27T13:48:58.668Z,33.17
2017-05-27T13:51:26.213Z,33.30
2017-05-27T13:53:53.737Z,33.33
2017-05-27T13:56:21.290Z,33.48
2017-05-27T13:58:48.811Z,33.72
2017-05-27T14:01:16.355Z,34.03
2017-05-27T14:03:43.900Z,34.38
2017-05-27T14:06:11.522Z,34.52
2017-05-27T14:08:39.131Z,34.61
2017-05-27T14:11:06.745Z,35.02
2017-05-27T14:13:34.405Z,34.90
2017-05-27T14:16:01.955Z,34.89
2017-05-27T14:18:29.585Z,34.82
2017-05-27T14:20:57.104Z,34.92
2017-05-27T14:23:24.675Z,35.27
2017-05-27T14:25:52.207Z,35.66
2017-05-27T14:28:20.296Z,35.69
2017-05-27T14:30:47.860Z,35.72
2017-05-27T14:33:15.391Z,35.92
2017-05-27T14:35:42.981Z,36.35
2017-05-27T14:38:10.538Z,36.16
2017-05-27T14:40:38.127Z,35.90
2017-05-27T14:43:05.656Z,35.92
2017-05-27T14:45:33.167Z,35.72
2017-05-27T14:48:00.742Z,35.68
2017-05-27T14:50:28.281Z,35.57
2017-05-27T14:52:55.913Z,35.89
2017-05-27T14:55:23.448Z,35.76
2017-05-27T14:57:51.000Z,35.60
2017-05-27T15:00:18.578Z,35.28
2017-05-27T15:02:46.115Z,35.09
2017-05-27T15:05:13.676Z,35.14
2017-05-27T15:07:41.193Z,35.38
2017-05-27T15:10:08.948Z,35.58
2017-05-27T15:12:36.527Z,35.79
2017-05-27T15:15:04.060Z,35.86
2017-05-27T15:17:31.619Z,35.91
2017-05-27T15:19:59.165Z,35.68
2017-05-27T15:22:26.736Z,35.49
2017-05-27T15:24:54.272Z,35.63
2017-05-27T15:27:21.850Z,35.65
2017-05-27T15:29:49.375Z,35.85
2017-05-27T15:32:16.923Z,35.81
2017-05-27T15:34:44.491Z,36.04
2017-05-27T15:37:12.068Z,36.11
2017-05-27T15:39:39.624Z,36.05
2017-05-27T15:42:07.159Z,35.96
2017-05-27T15:44:34.756Z,35.93
2017-05-27T15:47:02.296Z,36.09
2017-05-27T15:49:29.823Z,36.13
2017-05-27T15:51:57.393Z,36.19
2017-05-27T15:54:24.920Z,36.08
2017-05-27T15:56:52.499Z,35.99
2017-05-27T15:59:20.051Z,36.11
2017-05-27T16:01:47.590Z,35.89
2017-05-27T16:04:15.155Z,36.05
2017-05-27T16:06:42.679Z,35.91
2017-05-27T16:09:10.255Z,35.75
2017-05-27T16:11:37.799Z,35.63
2017-05-27T16:14:05.703Z,35.38
2017-05-27T16:16:33.271Z,35.51
2017-05-27T16:19:00.773Z,35.67
2017-05-27T16:21:28.359Z,35.82
2017-05-27T16:23:55.872Z,36.03
2017-05-27T16:26:23.456Z,35.89
2017-05-27T16:28:50.969Z,35.65
2017-05-27T16:31:18.535Z,35.23
2017-05-27T16:33:46.099Z,35.09
2017-05-27T16:36:13.668Z,35.19
2017-05-27T16:38:41.188Z,35.24
2017-05-27T16:41:08.716Z,35.18
2017-05-27T16:43:36.352Z,35.26
2017-05-27T16:46:03.956Z,35.20
2017-05-27T16:48:31.531Z,35.30
2017-05-27T16:50:59.060Z,35.29
2017-05-27T16:53:26.650Z,35.30
2017-05-27T16:55:54.192Z,35.27
2017-05-27T16:58:21.721Z,35.13
2017-05-27T17:00:49.277Z,35.07
2017-05-27T17:03:16.848Z,35.02
2017-05-27T17:05:44.514Z,34.80
2017-05-27T17:08:12.067Z,34.79
2017-05-27T17:10:39.652Z,34.86
2017-05-27T17:13:07.199Z,34.96
2017-05-27T17:15:34.854Z,34.90
2017-05-27T17:18:02.403Z,34.83
2017-05-27T17:20:29.932Z,34.82
2017-05-27T17:22:57.476Z,34.73
2017-05-27T17:25:25.018Z,34.64
2017-05-27T17:27:52.581Z,34.86
2017-05-27T17:30:20.155Z,34.65
2017-05-27T17:32:47.731Z,34.74
2017-05-27T17:35:15.277Z,34.49
2017-05-27T17:37:42.817Z,34.10
2017-05-27T17:40:10.374Z,33.85
2017-05-27T17:42:37.913Z,33.80
2017-05-27T17:45:05.477Z,33.85
2017-05-27T17:47:33.015Z,34.07
2017-05-27T17:50:00.568Z,34.40
2017-05-27T17:52:28.121Z,34.64
2017-05-27T17:54:55.753Z,34.76
2017-05-27T17:57:23.287Z,34.59
2017-05-27T17:59:50.821Z,34.60
2017-05-27T18:02:18.412Z,34.75
2017-05-27T18:04:45.975Z,34.60
2017-05-27T18:07:13.515Z,34.36
2017-05-27T18:09:41.074Z,34.27
2017-05-27T18:12:08.640Z,34.29
2017-05-27T18:14:36.247Z,34.50
2017-05-27T18:17:03.772Z,34.28
2017-05-27T18:19:31.297Z,33.82
2017-05-27T18:21:58.864Z,33.97
2017-05-27T18:24:26.381Z,33.84
2017-05-27T18:26:53.925Z,33.63
2017-05-27T18:29:21.527Z,33.64
2017-05-27T18:31:49.148Z,33.56
2017-05-27T18:34:16.833Z,33.46
2017-05-27T18:36:44.416Z,33.51
2017-05-27T18:39:11.952Z,33.06
2017-05-27T18:41:39.587Z,32.93
2017-05-27T18:44:07.117Z,32.93
2017-05-27T18:46:34.697Z,32.81
2017-05-27T18:49:02.257Z,32.60
2017-05-27T18:51:29.878Z,32.56
2017-05-27T18:53:57.461Z,32.26
2017-05-27T18:56:25.004Z,32.07
2017-05-27T18:58:52.580Z,31.76
2017-05-27T19:01:20.109Z,31.60
2017-05-27T19:03:47.698Z,31.48
2017-05-27T19:06:15.232Z,31.36
2017-05-27T19:08:43.626Z,31.46
2017-05-27T19:11:11.204Z,31.67
2017-05-27T19:13:38.754Z,31.61
2017-05-27T19:16:06.327Z,31.25
2017-05-27T19:18:33.898Z,31.24
2017-05-27T19:21:01.505Z,31.18
2017-05-27T19:23:29.041Z,31.12
2017-05-27T19:25:56.571Z,30.95
2017-05-27T19:28:24.141Z,30.97
2017-05-27T19:30:51.679Z,30.96
2017-05-27T19:33:19.240Z,30.87
2017-05-27T19:35:46.774Z,30.60
2017-05-27T19:38:14.320Z,30.56
2017-05-27T19:40:41.877Z,30.55
2017-05-27T19:43:09.438Z,30.37
2017-05-27T19:45:37.035Z,30.34
2017-05-27T19:48:04.936Z,30.10
2017-05-27T19:50:32.463Z,29.96
2017-05-27T19:53:00.007Z,29.93
2017-05-27T19:55:27.567Z,29.83
2017-05-27T19:57:55.093Z,29.78
2017-05-27T20:00:22.632Z,29.82
2017-05-27T20:02:50.168Z,29.73
2017-05-27T20:05:17.726Z,29.58
2017-05-27T20:07:45.252Z,29.44
2017-05-27T20:10:14.543Z,29.37
2017-05-27T20:12:42.108Z,29.32
2017-05-27T20:15:09.684Z,29.28
2017-05-27T20:17:37.328Z,29.18
2017-05-27T20:20:04.859Z,29.17
2017-05-27T20:22:32.424Z,29.13
2017-05-27T20:25:00.109Z,29.15
2017-05-27T20:27:27.695Z,29.10
2017-05-27T20:29:55.215Z,29.20
2017-05-27T20:32:22.771Z,29.13
2017-05-27T20:34:50.424Z,29.18
2017-05-27T20:37:18.021Z,29.14
2017-05-27T20:39:45.684Z,29.11
2017-05-27T20:42:13.220Z,28.97
2017-05-27T20:44:40.779Z,28.89
2017-05-27T20:47:08.308Z,28.79
2017-05-27T20:49:35.905Z,28.76
2017-05-27T20:52:03.467Z,28.72
2017-05-27T20:54:31.020Z,28.63
2017-05-27T20:56:58.576Z,28.59
2017-05-27T20:59:26.186Z,28.54
2017-05-27T21:01:53.795Z,28.46
2017-05-27T21:04:21.359Z,28.39
2017-05-27T21:06:48.971Z,28.39
2017-05-27T21:09:16.513Z,28.40
2017-05-27T21:11:44.163Z,28.36
2017-05-27T21:14:11.719Z,28.35
2017-05-27T21:16:39.328Z,28.30
2017-05-27T21:19:06.892Z,28.31
2017-05-27T21:21:34.429Z,28.33
2017-05-27T21:24:02.063Z,28.37
2017-05-27T21:26:29.747Z,28.24
2017-05-27T21:28:57.331Z,28.23
2017-05-27T21:31:24.873Z,28.12
2017-05-27T21:33:52.379Z,28.18
2017-05-27T21:36:20.015Z,28.10
2017-05-27T21:38:47.536Z,27.99
2017-05-27T21:41:15.057Z,27.85
2017-05-27T21:43:42.624Z,27.71
2017-05-27T21:46:10.141Z,27.60
2017-05-27T21:48:37.768Z,27.63
2017-05-27T21:51:05.293Z,27.50
2017-05-27T21:53:33.222Z,27.59
2017-05-27T21:56:00.860Z,27.53
2017-05-27T21:58:28.425Z,27.61
2017-05-27T22:00:55.959Z,27.47
2017-05-27T22:03:23.512Z,27.45
2017-05-27T22:05:51.101Z,27.44
2017-05-27T22:08:18.706Z,27.42
2017-05-27T22:10:46.684Z,27.37
2017-05-27T22:13:14.200Z,27.33
2017-05-27T22:15:41.729Z,27.18
2017-05-27T22:18:09.298Z,27.27
2017-05-27T22:20:36.832Z,27.38
2017-05-27T22:23:04.385Z,27.43
2017-05-27T22:25:31.980Z,27.43
2017-05-27T22:27:59.600Z,27.37
2017-05-27T22:30:27.121Z,27.35
2017-05-27T22:32:54.668Z,27.28
2017-05-27T22:35:22.245Z,27.24
2017-05-27T22:37:49.876Z,27.21
2017-05-27T22:40:17.460Z,27.30
2017-05-27T22:42:44.999Z,27.31
2017-05-27T22:45:12.635Z,27.28
2017-05-27T22:47:40.183Z,27.35
2017-05-27T22:50:07.724Z,27.37
2017-05-27T22:52:35.316Z,27.33
2017-05-27T22:55:02.851Z,27.28
2017-05-27T22:57:30.729Z,27.25
2017-05-27T22:59:58.314Z,27.09
2017-05-27T23:02:25.844Z,26.98
2017-05-27T23:04:53.409Z,27.03
2017-05-27T23:07:20.948Z,26.92
2017-05-27T23:09:48.496Z,26.81
2017-05-27T23:12:16.107Z,26.87
2017-05-27T23:14:43.692Z,26.88
2017-05-27T23:17:11.297Z,26.83
2017-05-27T23:19:38.867Z,26.88
2017-05-27T23:22:06.430Z,26.82
2017-05-27T23:24:34.009Z,26.74
2017-05-27T23:27:01.559Z,26.74
2017-05-27T23:29:29.079Z,26.68
2017-05-27T23:31:56.724Z,26.62
2017-05-27T23:34:24.284Z,26.63
2017-05-27T23:36:51.800Z,26.54
2017-05-27T23:39:19.343Z,26.58
2017-05-27T23:41:46.860Z,26.53
2017-05-27T23:44:14.727Z,26.46
2017-05-27T23:46:42.240Z,26.44
2017-05-27T23:49:09.829Z,26.41
2017-05-27T23:51:37.443Z,26.30
2017-05-27T23:54:04.968Z,26.31
2017-05-27T23:56:32.583Z,26.25
2017-05-27T23:59:00.104Z,26.21
